createdAt,value
2018-11-25T00:00:40.275Z,23.50
2018-11-25T00:03:07.869Z,25.20
2018-11-25T00:05:35.362Z,22.80
2018-11-25T00:08:17.890Z,24.00
2018-11-25T00:10:45.488Z,25.90
2018-11-25T00:13:12.954Z,26.40
2018-11-25T00:15:40.502Z,26.40
2018-11-25T00:18:08.038Z,25.23
2018-11-25T00:20:35.547Z,26.83
2018-11-25T00:23:03.079Z,24.67
2018-11-25T00:25:30.739Z,24.17
2018-11-25T00:27:58.201Z,24.67
2018-11-25T00:30:26.077Z,24.97
2018-11-25T00:32:53.742Z,25.17
2018-11-25T00:35:21.410Z,24.33
2018-11-25T00:37:49.215Z,23.37
2018-11-25T00:40:16.690Z,23.07
2018-11-25T00:42:44.663Z,23.37
2018-11-25T00:45:15.224Z,25.30
2018-11-25T00:47:42.734Z,25.50
2018-11-25T00:50:11.527Z,26.97
2018-11-25T00:52:39.101Z,24.80
2018-11-25T00:55:08.639Z,25.43
2018-11-25T00:57:36.156Z,25.87
2018-11-25T01:00:05.427Z,27.37
2018-11-25T01:02:32.909Z,29.57
2018-11-25T01:05:00.440Z,28.23
2018-11-25T01:07:27.938Z,28.20
2018-11-25T01:09:55.494Z,30.73
2018-11-25T01:12:23.547Z,29.07
2018-11-25T01:14:51.039Z,26.20
2018-11-25T01:17:18.570Z,27.70
2018-11-25T01:19:46.041Z,29.90
2018-11-25T01:22:13.613Z,29.80
2018-11-25T01:24:41.146Z,28.33
2018-11-25T01:27:08.899Z,27.20
2018-11-25T01:29:36.599Z,27.83
2018-11-25T01:32:04.137Z,28.67
2018-11-25T01:34:31.737Z,29.30
2018-11-25T01:36:59.329Z,30.60
2018-11-25T01:39:26.790Z,27.70
2018-11-25T01:41:54.262Z,28.20
2018-11-25T01:44:22.464Z,25.77
2018-11-25T01:46:49.931Z,26.93
2018-11-25T01:49:17.450Z,29.70
2018-11-25T01:51:44.988Z,27.70
2018-11-25T01:54:12.448Z,30.23
2018-11-25T01:56:39.951Z,28.67
2018-11-25T01:59:07.447Z,28.87
2018-11-25T02:01:35.002Z,29.17
2018-11-25T02:04:02.458Z,29.47
2018-11-25T02:06:30.172Z,28.53
2018-11-25T02:08:57.764Z,29.77
2018-11-25T02:11:25.890Z,29.47
2018-11-25T02:13:53.375Z,28.90
2018-11-25T02:16:21.289Z,29.00
2018-11-25T02:18:48.766Z,27.40
2018-11-25T02:21:16.247Z,30.20
2018-11-25T02:23:43.739Z,29.00
2018-11-25T02:26:11.271Z,28.40
2018-11-25T02:28:38.724Z,28.90
2018-11-25T02:31:08.053Z,28.80
2018-11-25T02:33:35.562Z,29.37
2018-11-25T02:36:03.065Z,29.80
2018-11-25T02:38:30.563Z,29.13
2018-11-25T02:40:58.057Z,29.63
2018-11-25T02:43:26.010Z,29.50
2018-11-25T02:45:53.502Z,28.47
2018-11-25T02:48:21.673Z,27.67
2018-11-25T02:50:49.127Z,29.63
2018-11-25T02:53:16.642Z,28.90
2018-11-25T02:55:44.090Z,28.63
2018-11-25T02:58:11.651Z,30.73
2018-11-25T03:00:39.119Z,28.43
2018-11-25T03:03:06.594Z,28.10
2018-11-25T03:05:34.342Z,27.40
2018-11-25T03:08:01.895Z,28.07
2018-11-25T03:10:29.398Z,30.40
2018-11-25T03:12:56.947Z,30.27
2018-11-25T03:15:24.418Z,29.57
2018-11-25T03:17:51.958Z,30.07
2018-11-25T03:20:19.406Z,26.87
2018-11-25T03:22:47.225Z,29.73
2018-11-25T03:25:18.758Z,31.20
2018-11-25T03:27:46.306Z,28.63
2018-11-25T03:30:15.714Z,32.30
2018-11-25T03:32:43.870Z,32.17
2018-11-25T03:35:12.067Z,29.60
2018-11-25T03:37:39.629Z,29.10
2018-11-25T03:40:08.660Z,30.33
2018-11-25T03:42:36.154Z,29.30
2018-11-25T03:45:04.963Z,29.57
2018-11-25T03:47:32.467Z,29.97
2018-11-25T03:49:59.987Z,30.33
2018-11-25T03:52:28.248Z,30.70
2018-11-25T03:54:55.802Z,32.13
2018-11-25T03:57:23.890Z,33.13
2018-11-25T03:59:51.399Z,30.67
2018-11-25T04:02:18.930Z,31.13
2018-11-25T04:04:46.398Z,32.43
2018-11-25T04:07:13.882Z,31.00
2018-11-25T04:09:41.398Z,34.67
2018-11-25T04:12:08.974Z,34.40
2018-11-25T04:14:36.587Z,31.13
2018-11-25T04:17:04.407Z,33.10
2018-11-25T04:19:31.985Z,32.90
2018-11-25T04:21:59.429Z,32.40
2018-11-25T04:24:28.005Z,31.60
2018-11-25T04:26:55.542Z,34.70
2018-11-25T04:29:23.309Z,31.70
2018-11-25T04:31:50.933Z,33.33
2018-11-25T04:34:18.384Z,31.93
2018-11-25T04:36:45.902Z,36.07
2018-11-25T04:39:13.385Z,36.33
2018-11-25T04:41:40.873Z,37.40
2018-11-25T04:44:08.380Z,33.33
2018-11-25T04:46:35.926Z,34.97
2018-11-25T04:49:03.430Z,33.43
2018-11-25T04:51:30.965Z,34.73
2018-11-25T04:53:58.554Z,35.30
2018-11-25T04:56:26.269Z,33.70
2018-11-25T04:58:53.808Z,35.37
2018-11-25T05:01:21.964Z,33.93
2018-11-25T05:03:49.450Z,33.90
2018-11-25T05:06:17.901Z,33.03
2018-11-25T05:08:45.426Z,33.87
2018-11-25T05:11:12.928Z,33.97
2018-11-25T05:13:40.402Z,34.20
2018-11-25T05:16:07.869Z,34.77
2018-11-25T05:18:35.323Z,31.50
2018-11-25T05:21:02.838Z,36.63
2018-11-25T05:23:30.465Z,35.40
2018-11-25T05:25:57.946Z,34.40
2018-11-25T05:28:25.453Z,31.60
2018-11-25T05:30:54.182Z,36.13
2018-11-25T05:33:22.314Z,36.07
2018-11-25T05:35:49.846Z,34.07
2018-11-25T05:38:17.550Z,36.60
2018-11-25T05:40:44.994Z,33.40
2018-11-25T05:43:12.595Z,33.70
2018-11-25T05:45:40.179Z,34.57
2018-11-25T05:48:07.792Z,36.70
2018-11-25T05:50:35.309Z,33.83
2018-11-25T05:53:02.774Z,32.80
2018-11-25T05:55:30.306Z,33.27
2018-11-25T05:57:57.902Z,34.13
2018-11-25T06:00:30.965Z,35.63
2018-11-25T06:02:58.543Z,32.57
2018-11-25T06:05:26.566Z,34.30
2018-11-25T06:07:54.093Z,33.10
2018-11-25T06:10:21.941Z,33.97
2018-11-25T06:12:49.428Z,33.10
2018-11-25T06:15:17.037Z,33.17
2018-11-25T06:17:44.583Z,30.67
2018-11-25T06:20:13.119Z,34.93
2018-11-25T06:22:40.790Z,32.37
2018-11-25T06:25:10.013Z,34.07
2018-11-25T06:27:38.173Z,34.53
2018-11-25T06:30:07.869Z,32.70
2018-11-25T06:32:35.379Z,30.20
2018-11-25T06:35:03.174Z,30.83
2018-11-25T06:37:31.517Z,32.10
2018-11-25T06:39:59.034Z,33.20
2018-11-25T06:42:26.768Z,32.57
2018-11-25T06:44:54.389Z,33.40
2018-11-25T06:47:21.974Z,33.90
2018-11-25T06:49:49.494Z,32.83
2018-11-25T06:52:17.394Z,31.80
2018-11-25T06:54:44.919Z,33.00
2018-11-25T06:57:12.590Z,33.87
2018-11-25T06:59:40.106Z,34.57
2018-11-25T07:02:07.711Z,31.90
2018-11-25T07:04:35.187Z,31.70
2018-11-25T07:07:02.722Z,32.23
2018-11-25T07:12:06.671Z,32.33
2018-11-25T07:14:34.493Z,34.77
2018-11-25T07:17:02.109Z,33.83
2018-11-25T07:19:29.682Z,33.63
2018-11-25T07:21:57.263Z,33.47
2018-11-25T07:24:24.756Z,34.20
2018-11-25T07:26:52.334Z,34.90
2018-11-25T07:29:19.903Z,34.60
2018-11-25T07:31:47.437Z,35.50
2018-11-25T07:34:15.164Z,34.63
2018-11-25T07:36:42.704Z,34.27
2018-11-25T07:39:10.367Z,35.00
2018-11-25T07:41:37.911Z,37.40
2018-11-25T07:46:39.807Z,35.30
2018-11-25T07:49:07.345Z,35.90
2018-11-25T07:51:35.128Z,37.53
2018-11-25T07:54:02.687Z,35.83
2018-11-25T07:56:30.683Z,36.63
2018-11-25T07:58:58.263Z,36.00
2018-11-25T08:01:26.073Z,39.73
2018-11-25T08:03:53.638Z,36.10
2018-11-25T08:06:21.226Z,39.30
2018-11-25T08:08:48.743Z,38.93
2018-11-25T08:11:16.644Z,36.73
2018-11-25T08:13:44.222Z,37.97
2018-11-25T08:16:11.812Z,38.97
2018-11-25T08:18:39.392Z,41.63
2018-11-25T08:21:07.033Z,40.63
2018-11-25T08:23:34.824Z,41.83
2018-11-25T08:26:02.533Z,36.30
2018-11-25T08:28:30.394Z,41.13
2018-11-25T08:30:58.062Z,40.27
2018-11-25T08:33:25.882Z,39.50
2018-11-25T08:35:53.850Z,39.10
2018-11-25T08:38:21.463Z,42.53
2018-11-25T08:40:50.187Z,37.63
2018-11-25T08:43:17.748Z,38.77
2018-11-25T08:45:45.530Z,39.03
2018-11-25T08:48:13.144Z,37.50
2018-11-25T08:50:40.849Z,39.17
2018-11-25T08:53:57.481Z,38.27
2018-11-25T08:56:25.180Z,38.60
2018-11-25T08:58:53.374Z,39.73
2018-11-25T09:01:21.212Z,37.60
2018-11-25T09:03:48.708Z,41.47
2018-11-25T09:06:16.277Z,38.30
2018-11-25T09:08:43.951Z,38.67
2018-11-25T09:11:11.536Z,40.40
2018-11-25T09:13:39.130Z,39.30
2018-11-25T09:16:06.728Z,40.37
2018-11-25T09:18:34.651Z,38.30
2018-11-25T09:21:02.189Z,39.40
2018-11-25T09:23:30.359Z,39.43
2018-11-25T09:25:57.981Z,39.07
2018-11-25T09:28:26.639Z,41.53
2018-11-25T09:30:54.133Z,36.70
2018-11-25T09:33:21.884Z,40.60
2018-11-25T09:35:49.623Z,41.07
2018-11-25T09:38:17.183Z,38.87
2018-11-25T09:40:44.888Z,41.30
2018-11-25T09:43:12.404Z,41.43
2018-11-25T09:45:39.981Z,42.33
2018-11-25T09:48:07.561Z,42.30
2018-11-25T09:50:35.366Z,41.60
2018-11-25T09:53:02.970Z,38.30
2018-11-25T09:55:30.840Z,42.97
2018-11-25T09:58:00.212Z,42.90
2018-11-25T10:00:34.948Z,43.00
2018-11-25T10:03:03.795Z,43.00
2018-11-25T10:05:31.811Z,39.40
2018-11-25T10:07:59.392Z,41.63
2018-11-25T10:10:27.579Z,42.33
2018-11-25T10:12:55.290Z,39.17
2018-11-25T10:15:24.258Z,40.87
2018-11-25T10:17:59.028Z,40.47
2018-11-25T10:20:21.690Z,40.70
2018-11-25T10:22:49.248Z,40.63
2018-11-25T10:25:17.223Z,41.50
2018-11-25T10:27:44.993Z,39.87
2018-11-25T10:30:14.371Z,40.07
2018-11-25T10:32:42.467Z,41.60
2018-11-25T10:35:10.378Z,41.30
2018-11-25T10:37:38.508Z,39.07
2018-11-25T10:40:09.887Z,41.43
2018-11-25T10:42:38.552Z,39.77
2018-11-25T10:45:08.750Z,37.77
2018-11-25T10:47:36.890Z,40.87
2018-11-25T10:50:05.237Z,42.03
2018-11-25T10:52:32.917Z,38.90
2018-11-25T10:55:00.961Z,39.37
2018-11-25T10:57:28.527Z,41.90
2018-11-25T10:59:56.140Z,37.90
2018-11-25T11:02:29.266Z,41.07
2018-11-25T11:05:02.510Z,41.80
2018-11-25T11:07:35.717Z,39.33
2018-11-25T11:10:03.684Z,40.97
2018-11-25T11:12:32.275Z,40.00
2018-11-25T11:14:59.901Z,40.47
2018-11-25T11:17:27.936Z,40.07
2018-11-25T11:19:55.590Z,42.17
2018-11-25T11:22:23.205Z,36.47
2018-11-25T11:24:50.803Z,40.50
2018-11-25T11:27:18.499Z,43.87
2018-11-25T11:29:46.137Z,42.73
2018-11-25T11:32:13.808Z,38.73
2018-11-25T11:34:41.425Z,44.40
2018-11-25T11:37:09.485Z,42.67
2018-11-25T11:39:37.043Z,40.03
2018-11-25T11:42:04.736Z,40.77
2018-11-25T11:44:32.431Z,44.73
2018-11-25T11:47:00.148Z,43.47
2018-11-25T11:49:27.889Z,44.97
2018-11-25T11:51:55.521Z,43.57
2018-11-25T11:54:23.101Z,46.80
2018-11-25T11:56:50.872Z,43.57
2018-11-25T11:59:18.458Z,45.40
2018-11-25T12:01:46.125Z,43.90
2018-11-25T12:04:14.006Z,42.43
2018-11-25T12:06:41.544Z,43.90
2018-11-25T12:09:10.035Z,47.40
2018-11-25T12:11:37.685Z,42.43
2018-11-25T12:14:05.484Z,40.50
2018-11-25T12:16:33.040Z,38.53
2018-11-25T12:19:00.682Z,43.90
2018-11-25T12:21:28.340Z,40.30
2018-11-25T12:23:55.932Z,41.07
2018-11-25T12:26:23.520Z,43.00
2018-11-25T12:28:51.140Z,41.63
2018-11-25T12:31:18.806Z,43.00
2018-11-25T12:33:46.436Z,46.37
2018-11-25T12:36:14.125Z,44.77
2018-11-25T12:38:41.758Z,45.73
2018-11-25T12:41:09.356Z,42.77
2018-11-25T12:43:36.948Z,43.30
2018-11-25T12:46:04.623Z,43.07
2018-11-25T12:48:32.271Z,45.10
2018-11-25T12:50:59.826Z,44.00
2018-11-25T12:53:27.975Z,45.20
2018-11-25T12:55:55.623Z,46.97
2018-11-25T12:58:23.415Z,46.97
2018-11-25T13:00:51.046Z,45.80
2018-11-25T13:03:18.573Z,48.40
2018-11-25T13:05:46.673Z,46.70
2018-11-25T13:08:14.194Z,46.17
2018-11-25T13:10:41.917Z,46.10
2018-11-25T13:13:10.533Z,46.30
2018-11-25T13:15:38.146Z,47.00
2018-11-25T13:18:06.997Z,46.47
2018-11-25T13:20:34.613Z,45.30
2018-11-25T13:23:02.232Z,51.50
2018-11-25T13:25:30.249Z,45.20
2018-11-25T13:27:57.969Z,46.83
2018-11-25T13:30:27.263Z,46.27
2018-11-25T13:32:56.777Z,46.50
2018-11-25T13:35:26.144Z,44.70
2018-11-25T13:37:53.882Z,44.73
2018-11-25T13:40:21.934Z,47.30
2018-11-25T13:42:50.817Z,43.27
2018-11-25T13:45:18.440Z,45.67
2018-11-25T13:47:46.021Z,44.77
2018-11-25T13:50:17.798Z,47.00
2018-11-25T13:52:45.417Z,47.17
2018-11-25T13:55:17.541Z,47.77
2018-11-25T13:57:45.430Z,45.63
2018-11-25T14:00:31.240Z,44.07
2018-11-25T14:02:59.248Z,46.07
2018-11-25T14:05:27.357Z,46.03
2018-11-25T14:07:55.092Z,44.97
2018-11-25T14:10:26.925Z,48.17
2018-11-25T14:12:54.689Z,47.70
2018-11-25T14:15:22.357Z,44.60
2018-11-25T14:17:49.934Z,47.30
2018-11-25T14:20:17.528Z,43.50
2018-11-25T14:22:45.383Z,45.63
2018-11-25T14:25:14.878Z,47.50
2018-11-25T14:27:42.817Z,42.67
2018-11-25T14:30:13.437Z,42.27
2018-11-25T14:32:40.005Z,43.13
2018-11-25T14:35:09.604Z,42.80
2018-11-25T14:37:37.176Z,43.50
2018-11-25T14:40:07.653Z,43.00
2018-11-25T14:42:35.372Z,43.50
2018-11-25T14:45:03.083Z,45.10
2018-11-25T14:47:31.268Z,41.77
2018-11-25T14:49:58.891Z,41.17
2018-11-25T14:52:26.831Z,42.40
2018-11-25T14:54:54.397Z,43.17
2018-11-25T14:57:22.063Z,43.10
2018-11-25T14:59:49.663Z,41.40
2018-11-25T15:02:17.320Z,41.50
2018-11-25T15:04:44.928Z,43.43
2018-11-25T15:07:12.503Z,45.10
2018-11-25T15:09:40.207Z,44.27
2018-11-25T15:12:07.848Z,43.30
2018-11-25T15:14:35.508Z,45.87
2018-11-25T15:17:03.193Z,47.80
2018-11-25T15:19:31.224Z,46.70
2018-11-25T15:21:58.870Z,43.27
2018-11-25T15:24:26.972Z,47.67
2018-11-25T15:26:54.610Z,46.07
2018-11-25T15:29:22.184Z,45.33
2018-11-25T15:31:49.784Z,46.10
2018-11-25T15:34:17.418Z,46.90
2018-11-25T15:36:45.056Z,48.20
2018-11-25T15:39:12.639Z,43.07
2018-11-25T15:41:40.287Z,44.93
2018-11-25T15:44:08.064Z,42.93
2018-11-25T15:46:35.865Z,39.00
2018-11-25T15:49:03.509Z,38.37
2018-11-25T15:51:31.203Z,38.17
2018-11-25T15:53:59.028Z,39.00
2018-11-25T15:56:26.960Z,39.70
2018-11-25T15:58:54.649Z,38.30
2018-11-25T16:01:22.261Z,37.07
2018-11-25T16:03:49.884Z,39.53
2018-11-25T16:06:30.545Z,37.40
2018-11-25T16:09:04.338Z,39.90
2018-11-25T16:11:32.865Z,38.30
2018-11-25T16:14:00.564Z,38.53
2018-11-25T16:16:28.220Z,39.17
2018-11-25T16:18:55.961Z,38.13
2018-11-25T16:21:23.585Z,35.53
2018-11-25T16:23:51.203Z,35.80
2018-11-25T16:26:22.546Z,34.77
2018-11-25T16:28:52.384Z,36.07
2018-11-25T16:31:20.358Z,40.95
2018-11-25T16:33:48.091Z,39.07
2018-11-25T16:36:15.930Z,36.17
2018-11-25T16:38:43.457Z,37.23
2018-11-25T16:41:11.069Z,36.80
2018-11-25T16:43:38.621Z,33.73
2018-11-25T16:46:06.277Z,36.60
2018-11-25T16:48:34.104Z,40.77
2018-11-25T16:51:01.832Z,34.70
2018-11-25T16:53:29.513Z,38.43
2018-11-25T16:55:57.032Z,33.83
2018-11-25T16:58:24.747Z,33.80
2018-11-25T17:00:52.365Z,35.40
2018-11-25T17:03:20.412Z,35.43
2018-11-25T17:05:49.782Z,39.03
2018-11-25T17:08:22.903Z,34.90
2018-11-25T17:10:50.728Z,35.40
2018-11-25T17:13:18.319Z,34.90
2018-11-25T17:15:46.302Z,33.60
2018-11-25T17:18:13.964Z,32.07
2018-11-25T17:20:42.248Z,32.80
2018-11-25T17:23:10.094Z,31.97
2018-11-25T17:25:37.704Z,31.10
2018-11-25T17:28:08.472Z,31.37
2018-11-25T17:30:37.973Z,32.07
2018-11-25T17:33:06.603Z,33.90
2018-11-25T17:35:34.172Z,32.30
2018-11-25T17:38:01.862Z,33.67
2018-11-25T17:40:29.627Z,30.57
2018-11-25T17:42:57.395Z,32.73
2018-11-25T17:45:24.960Z,31.03
2018-11-25T17:47:52.628Z,28.63
2018-11-25T17:50:22.693Z,33.37
2018-11-25T17:52:50.240Z,32.23
2018-11-25T17:55:18.780Z,32.87
2018-11-25T17:57:46.368Z,32.87
2018-11-25T18:00:20.519Z,36.80
2018-11-25T18:02:48.092Z,32.90
2018-11-25T18:05:15.644Z,33.20
2018-11-25T18:07:43.257Z,31.40
2018-11-25T18:10:12.095Z,34.17
2018-11-25T18:12:41.378Z,32.10
2018-11-25T18:15:14.020Z,29.70
2018-11-25T18:17:44.140Z,29.70
2018-11-25T18:20:11.944Z,31.87
2018-11-25T18:22:43.638Z,30.50
2018-11-25T18:25:16.120Z,32.50
2018-11-25T18:27:43.826Z,32.50
2018-11-25T18:30:12.925Z,31.27
2018-11-25T18:32:40.961Z,30.17
2018-11-25T18:35:09.348Z,30.20
2018-11-25T18:37:37.317Z,30.80
2018-11-25T18:40:07.465Z,31.10
2018-11-25T18:42:35.528Z,31.87
2018-11-25T18:45:03.615Z,35.37
2018-11-25T18:47:31.316Z,33.80
2018-11-25T18:49:58.980Z,30.67
2018-11-25T18:52:26.776Z,33.40
2018-11-25T18:54:53.396Z,33.50
2018-11-25T18:57:21.092Z,35.17
2018-11-25T18:59:48.804Z,32.60
2018-11-25T19:02:18.928Z,34.03
2018-11-25T19:04:46.796Z,33.23
2018-11-25T19:07:14.440Z,34.80
2018-11-25T19:09:42.029Z,37.00
2018-11-25T19:12:10.004Z,35.87
2018-11-25T19:14:37.984Z,36.97
2018-11-25T19:17:05.537Z,34.33
2018-11-25T19:19:33.340Z,39.57
2018-11-25T19:22:01.373Z,36.53
2018-11-25T19:24:28.913Z,39.37
2018-11-25T19:26:56.624Z,37.07
2018-11-25T19:29:24.718Z,34.70
2018-11-25T19:31:52.434Z,35.63
2018-11-25T19:34:20.337Z,36.23
2018-11-25T19:36:47.934Z,33.80
2018-11-25T19:39:15.656Z,33.40
2018-11-25T19:41:43.355Z,33.90
2018-11-25T19:44:11.205Z,37.27
2018-11-25T19:46:38.949Z,34.63
2018-11-25T19:49:06.577Z,36.47
2018-11-25T19:51:34.217Z,34.53
2018-11-25T19:54:01.859Z,32.60
2018-11-25T19:56:29.380Z,33.40
2018-11-25T19:58:59.639Z,33.90
2018-11-25T20:01:29.184Z,35.30
2018-11-25T20:03:56.973Z,32.90
2018-11-25T20:06:24.585Z,32.07
2018-11-25T20:08:52.124Z,34.33
2018-11-25T20:11:19.727Z,30.03
2018-11-25T20:13:47.346Z,31.00
2018-11-25T20:16:20.683Z,30.83
2018-11-25T20:18:48.263Z,31.47
2018-11-25T20:21:21.522Z,30.50
2018-11-25T20:23:49.308Z,31.43
2018-11-25T20:26:16.896Z,32.40
2018-11-25T20:28:44.470Z,29.27
2018-11-25T20:31:12.076Z,28.70
2018-11-25T20:33:52.170Z,29.47
2018-11-25T20:36:14.896Z,32.17
2018-11-25T20:38:48.343Z,29.03
2018-11-25T20:41:15.912Z,27.63
2018-11-25T20:43:43.619Z,28.80
2018-11-25T20:46:16.880Z,28.43
2018-11-25T20:48:44.579Z,26.80
2018-11-25T20:51:12.184Z,26.40
2018-11-25T20:53:45.653Z,25.40
2018-11-25T20:56:13.183Z,27.43
2018-11-25T20:58:40.759Z,26.20
2018-11-25T21:01:08.470Z,27.80
2018-11-25T21:03:36.200Z,26.27
2018-11-25T21:06:04.129Z,27.77
2018-11-25T21:08:31.680Z,26.83
2018-11-25T21:10:59.283Z,26.57
2018-11-25T21:13:26.993Z,26.13
2018-11-25T21:15:54.652Z,26.30
2018-11-25T21:18:22.539Z,26.20
2018-11-25T21:20:51.272Z,27.00
2018-11-25T21:23:17.973Z,27.93
2018-11-25T21:25:45.484Z,26.03
2018-11-25T21:28:13.099Z,26.97
2018-11-25T21:30:47.403Z,25.67
2018-11-25T21:33:15.648Z,27.00
2018-11-25T21:35:47.780Z,23.83
2018-11-25T21:38:20.686Z,24.90
2018-11-25T21:40:53.273Z,25.57
2018-11-25T21:43:26.063Z,26.73
2018-11-25T21:45:58.198Z,26.80
2018-11-25T21:48:26.460Z,26.37
2018-11-25T21:50:54.039Z,25.67
2018-11-25T21:53:21.619Z,24.17
2018-11-25T21:58:16.947Z,27.73
2018-11-25T22:00:44.476Z,26.20
2018-11-25T22:03:12.044Z,25.80
2018-11-25T22:05:39.742Z,28.03
2018-11-25T22:08:07.516Z,27.47
2018-11-25T22:10:35.193Z,26.43
2018-11-25T22:13:02.804Z,26.07
2018-11-25T22:15:30.368Z,28.17
2018-11-25T22:18:08.157Z,26.50
2018-11-25T22:20:35.723Z,25.40
2018-11-25T22:23:03.281Z,26.00
2018-11-25T22:25:30.871Z,27.60
2018-11-25T22:27:58.520Z,26.60
2018-11-25T22:30:26.088Z,24.03
2018-11-25T22:32:53.715Z,28.63
2018-11-25T22:35:22.296Z,24.37
2018-11-25T22:37:49.888Z,26.77
2018-11-25T22:40:18.253Z,26.57
2018-11-25T22:42:46.891Z,26.07
2018-11-25T22:45:17.560Z,26.13
2018-11-25T22:47:45.135Z,28.93
2018-11-25T22:50:13.943Z,26.50
2018-11-25T22:52:41.718Z,26.70
2018-11-25T22:55:14.888Z,27.67
2018-11-25T22:57:42.825Z,28.13
2018-11-25T23:00:20.208Z,27.70
2018-11-25T23:02:47.745Z,27.67
2018-11-25T23:05:26.853Z,27.47
2018-11-25T23:07:54.547Z,28.33
2018-11-25T23:10:22.116Z,28.57
2018-11-25T23:12:49.897Z,26.20
2018-11-25T23:15:17.478Z,26.73
2018-11-25T23:17:45.164Z,26.47
2018-11-25T23:20:12.863Z,27.80
2018-11-25T23:22:40.559Z,27.37
2018-11-25T23:25:08.236Z,26.63
2018-11-25T23:27:35.802Z,27.43
2018-11-25T23:30:03.565Z,26.43
2018-11-25T23:32:31.202Z,26.37
2018-11-25T23:34:58.793Z,26.37
2018-11-25T23:37:26.340Z,25.87
2018-11-25T23:39:53.893Z,28.20
2018-11-25T23:42:21.510Z,27.37
2018-11-25T23:44:49.048Z,26.77
2018-11-25T23:47:16.612Z,27.50
2018-11-25T23:49:44.187Z,28.63
2018-11-25T23:52:11.757Z,27.10
2018-11-25T23:54:39.623Z,26.50
2018-11-25T23:57:07.208Z,28.23
2018-11-25T23:59:34.807Z,29.10
